Sodak Park, South Dakota
Current Conditions -  °F | °C
As of 11:13 AM on Thursday 27 Nov 2014 (Local Time) from KVVV Reporting Station
Clear Clear  
Wind Chill: -13°   Ceiling: Unl
Heat Index:   Visibility: 10mi
Dew Point: -8°   Wind: 7mph
Humidity: 72%   Direction: 140°SE
Pressure: 30.47"   Gusts: NA
Location:  45.4152°N, 96.8664°W
Report Text: KVVV 271713Z AUTO 14006KT 10SM CLR M18/M22 A3047 RMK AO2
Loading
Personal Weather Stations






























Interactive Weather Map New forecast layout! Learn more

10-Day Weather Forecast

Advertisements
Track Severe Weather on mobile